createdAt,value
2023-04-25T00:02:08.252Z,6.15
2023-04-25T00:04:39.464Z,4.90
2023-04-25T00:07:07.637Z,2.90
2023-04-25T00:09:35.424Z,2.10
2023-04-25T00:12:03.233Z,2.70
2023-04-25T00:14:31.660Z,4.70
2023-04-25T00:17:00.447Z,7.90
2023-04-25T00:19:29.488Z,2.70
2023-04-25T00:21:57.559Z,4.90
2023-04-25T00:24:25.540Z,3.80
2023-04-25T00:26:53.321Z,4.85
2023-04-25T00:29:21.160Z,2.88
2023-04-25T00:31:48.982Z,5.78
2023-04-25T00:34:19.568Z,4.10
2023-04-25T00:36:47.350Z,3.03
2023-04-25T00:39:15.332Z,5.07
2023-04-25T00:41:43.287Z,3.03
2023-04-25T00:44:12.392Z,3.63
2023-04-25T00:46:41.167Z,7.57
2023-04-25T00:49:09.096Z,7.82
2023-04-25T00:51:37.623Z,3.08
2023-04-25T00:54:05.357Z,5.55
2023-04-25T00:56:33.266Z,5.25
2023-04-25T00:59:01.129Z,7.72
2023-04-25T01:01:32.350Z,4.03
2023-04-25T01:04:01.298Z,2.83
2023-04-25T01:06:29.536Z,3.45
2023-04-25T01:08:57.446Z,7.35
2023-04-25T01:11:25.638Z,5.53
2023-04-25T01:13:53.548Z,4.22
2023-04-25T01:16:21.579Z,3.97
2023-04-25T01:18:54.984Z,5.63
2023-04-25T01:21:22.953Z,5.20
2023-04-25T01:23:51.397Z,5.30
2023-04-25T01:26:19.475Z,5.07
2023-04-25T01:28:48.211Z,2.72
2023-04-25T01:31:16.486Z,4.00
2023-04-25T01:33:46.624Z,3.92
2023-04-25T01:38:42.441Z,7.38
2023-04-25T01:41:10.260Z,5.18
2023-04-25T01:43:38.081Z,4.95
2023-04-25T01:46:06.035Z,2.20
2023-04-25T01:48:34.003Z,3.38
2023-04-25T01:51:01.732Z,3.60
2023-04-25T01:53:30.973Z,5.63
2023-04-25T01:55:58.660Z,4.15
2023-04-25T01:58:26.580Z,5.97
2023-04-25T02:00:58.392Z,3.97
2023-04-25T02:03:26.379Z,9.57
2023-04-25T02:05:54.230Z,2.83
2023-04-25T02:08:22.113Z,5.80
2023-04-25T02:10:50.008Z,5.05
2023-04-25T02:13:17.746Z,7.80
2023-04-25T02:15:45.672Z,5.80
2023-04-25T02:18:13.588Z,3.80
2023-04-25T02:20:41.366Z,6.70
2023-04-25T02:23:09.176Z,4.28
2023-04-25T02:25:37.011Z,2.90
2023-04-25T02:28:04.975Z,7.13
2023-04-25T02:30:33.080Z,7.97
2023-04-25T02:33:01.180Z,3.80
2023-04-25T02:35:29.101Z,3.63
2023-04-25T02:37:59.279Z,4.47
2023-04-25T02:40:27.191Z,5.32
2023-04-25T02:42:58.259Z,4.60
2023-04-25T02:45:25.938Z,4.85
2023-04-25T02:47:53.826Z,4.43
2023-04-25T02:50:21.713Z,5.25
2023-04-25T02:52:52.619Z,4.60
2023-04-25T02:55:20.790Z,4.53
2023-04-25T02:57:48.666Z,3.90
2023-04-25T03:00:18.136Z,4.22
2023-04-25T03:02:46.108Z,3.10
2023-04-25T03:05:13.917Z,6.03
2023-04-25T03:07:41.919Z,5.50
2023-04-25T03:10:12.356Z,6.20
2023-04-25T03:12:42.597Z,6.18
2023-04-25T03:15:10.552Z,6.57
2023-04-25T03:17:38.402Z,6.55
2023-04-25T03:20:06.529Z,5.72
2023-04-25T03:22:34.562Z,5.53
2023-04-25T03:25:02.245Z,6.43
2023-04-25T03:27:30.175Z,4.97
2023-04-25T03:29:57.977Z,6.85
2023-04-25T03:32:25.838Z,6.05
2023-04-25T03:34:53.601Z,6.82
2023-04-25T03:37:21.399Z,6.05
2023-04-25T03:39:49.188Z,4.28
2023-04-25T03:42:17.147Z,3.47
2023-04-25T03:44:44.946Z,11.73
2023-04-25T03:47:13.082Z,6.03
2023-04-25T03:49:41.017Z,6.43
2023-04-25T03:52:08.838Z,4.28
2023-04-25T03:54:36.669Z,3.53
2023-04-25T03:57:04.568Z,4.07
2023-04-25T03:59:32.425Z,15.38
2023-04-25T04:02:01.172Z,5.13
2023-04-25T04:04:29.205Z,7.63
2023-04-25T04:06:57.223Z,5.55
2023-04-25T04:09:24.979Z,7.30
2023-04-25T04:11:52.749Z,6.35
2023-04-25T04:14:20.672Z,5.75
2023-04-25T04:16:48.480Z,5.00
2023-04-25T04:19:18.613Z,3.63
2023-04-25T04:24:17.918Z,4.07
2023-04-25T04:26:46.204Z,3.75
2023-04-25T04:29:21.785Z,9.90
2023-04-25T04:31:50.720Z,5.32
2023-04-25T04:34:19.510Z,9.82
2023-04-25T04:36:47.981Z,4.75
2023-04-25T04:39:15.991Z,6.03
2023-04-25T04:41:46.784Z,8.93
2023-04-25T04:44:15.151Z,14.43
2023-04-25T04:46:46.196Z,9.85
2023-04-25T04:49:14.928Z,16.98
2023-04-25T04:51:45.626Z,9.48
2023-04-25T04:54:15.880Z,10.65
2023-04-25T04:56:43.729Z,9.20
2023-04-25T04:59:11.632Z,11.02
2023-04-25T05:01:39.368Z,17.70
2023-04-25T05:04:07.968Z,41.38
2023-04-25T05:06:36.112Z,32.08
2023-04-25T05:09:03.974Z,34.58
2023-04-25T05:11:31.742Z,5.32
2023-04-25T05:13:59.603Z,20.02
2023-04-25T05:16:27.340Z,20.58
2023-04-25T05:18:55.296Z,16.00
2023-04-25T05:21:23.557Z,14.13
2023-04-25T05:23:51.605Z,19.45
2023-04-25T05:26:19.593Z,13.73
2023-04-25T05:28:47.351Z,17.98
2023-04-25T05:31:15.327Z,14.27
2023-04-25T05:33:43.201Z,15.20
2023-04-25T05:36:11.265Z,39.03
2023-04-25T05:38:39.137Z,28.42
2023-04-25T05:41:06.953Z,18.15
2023-04-25T05:43:34.858Z,24.77
2023-04-25T05:46:02.668Z,27.75
2023-04-25T05:48:33.148Z,17.13
2023-04-25T05:51:00.992Z,37.03
2023-04-25T05:53:31.949Z,21.75
2023-04-25T05:55:59.743Z,27.60
2023-04-25T05:58:27.485Z,19.88
2023-04-25T06:00:57.638Z,21.58
2023-04-25T06:03:26.105Z,17.83
2023-04-25T06:06:34.978Z,52.05
2023-04-25T06:09:02.867Z,18.08
2023-04-25T06:11:31.001Z,9.10
2023-04-25T06:13:58.888Z,10.40
2023-04-25T06:16:27.206Z,11.80
2023-04-25T06:18:55.458Z,17.45
2023-04-25T06:21:23.135Z,17.63
2023-04-25T06:23:51.031Z,27.15
2023-04-25T06:26:19.571Z,14.02
2023-04-25T06:28:47.514Z,31.85
2023-04-25T06:31:15.327Z,27.70
2023-04-25T06:33:43.280Z,27.08
2023-04-25T06:36:11.404Z,28.88
2023-04-25T06:38:39.235Z,32.08
2023-04-25T06:41:07.028Z,31.17
2023-04-25T06:43:34.757Z,27.95
2023-04-25T06:46:08.705Z,25.05
2023-04-25T06:48:36.560Z,33.72
2023-04-25T06:51:04.499Z,22.73
2023-04-25T06:53:32.178Z,31.95
2023-04-25T06:56:02.392Z,33.17
2023-04-25T06:58:30.418Z,25.35
2023-04-25T07:00:59.640Z,38.22
2023-04-25T07:03:27.540Z,31.13
2023-04-25T07:05:55.454Z,34.20
2023-04-25T07:08:23.315Z,27.90
2023-04-25T07:10:54.274Z,18.48
2023-04-25T07:13:22.278Z,26.48
2023-04-25T07:15:49.982Z,25.77
2023-04-25T07:18:17.811Z,11.63
2023-04-25T07:20:45.772Z,25.38
2023-04-25T07:23:13.756Z,43.72
2023-04-25T07:25:41.514Z,17.92
2023-04-25T07:28:09.234Z,25.15
2023-04-25T07:30:37.908Z,24.48
2023-04-25T07:33:08.633Z,35.95
2023-04-25T07:35:36.533Z,20.02
2023-04-25T07:38:07.809Z,21.98
2023-04-25T07:40:38.149Z,18.48
2023-04-25T07:43:05.973Z,19.88
2023-04-25T07:45:33.887Z,20.73
2023-04-25T07:48:01.689Z,19.05
2023-04-25T07:50:29.986Z,43.05
2023-04-25T07:52:57.741Z,20.30
2023-04-25T07:55:25.557Z,23.23
2023-04-25T07:57:53.328Z,21.33
2023-04-25T08:00:22.183Z,28.95
2023-04-25T08:02:52.558Z,20.50
2023-04-25T08:05:22.742Z,26.23
2023-04-25T08:07:51.218Z,24.50
2023-04-25T08:10:19.171Z,20.92
2023-04-25T08:12:46.929Z,29.67
2023-04-25T08:15:14.907Z,26.95
2023-04-25T08:17:42.578Z,35.92
2023-04-25T08:20:10.686Z,33.95
2023-04-25T08:22:41.058Z,38.33
2023-04-25T08:25:08.970Z,31.27
2023-04-25T08:27:37.241Z,41.72
2023-04-25T08:30:06.646Z,53.75
2023-04-25T08:32:39.193Z,22.83
2023-04-25T08:35:07.228Z,43.17
2023-04-25T08:37:35.055Z,50.00
2023-04-25T08:40:03.910Z,42.53
2023-04-25T08:42:40.762Z,28.23
2023-04-25T08:45:10.708Z,21.83
2023-04-25T08:47:39.567Z,26.52
2023-04-25T08:50:08.233Z,24.52
2023-04-25T08:52:42.039Z,38.58
2023-04-25T08:55:11.935Z,17.77
2023-04-25T09:02:37.817Z,35.13
2023-04-25T09:05:11.001Z,52.15
2023-04-25T09:07:40.123Z,32.03
2023-04-25T09:10:08.117Z,16.08
2023-04-25T09:12:37.264Z,39.08
2023-04-25T09:15:06.490Z,26.35
2023-04-25T09:17:34.502Z,30.50
2023-04-25T09:20:15.680Z,28.73
2023-04-25T09:22:44.080Z,20.88
2023-04-25T09:25:12.745Z,37.53
2023-04-25T09:27:52.185Z,28.83
2023-04-25T09:30:22.914Z,31.00
2023-04-25T09:32:51.011Z,25.60
2023-04-25T09:35:28.139Z,25.27
2023-04-25T09:37:56.113Z,23.08
2023-04-25T09:40:23.978Z,21.48
2023-04-25T09:42:52.823Z,33.08
2023-04-25T09:45:20.572Z,27.40
2023-04-25T09:47:50.948Z,41.00
2023-04-25T09:50:20.542Z,27.02
2023-04-25T09:52:50.268Z,20.48
2023-04-25T09:55:18.233Z,35.53
2023-04-25T09:57:49.483Z,15.95
2023-04-25T10:00:18.333Z,24.80
2023-04-25T10:02:48.219Z,46.15
2023-04-25T10:05:16.813Z,39.58
2023-04-25T10:07:44.609Z,27.20
2023-04-25T10:10:14.834Z,41.90
2023-04-25T10:12:44.579Z,27.70
2023-04-25T10:15:12.965Z,33.95
2023-04-25T10:17:41.122Z,16.85
2023-04-25T10:20:12.278Z,16.27
2023-04-25T10:22:42.107Z,39.63
2023-04-25T10:25:10.245Z,23.13
2023-04-25T10:27:38.321Z,23.50
2023-04-25T10:30:25.183Z,41.17
2023-04-25T10:32:53.035Z,22.65
2023-04-25T10:35:21.941Z,26.25
2023-04-25T10:38:05.062Z,31.25
2023-04-25T10:40:33.253Z,33.53
2023-04-25T10:43:36.601Z,30.67
2023-04-25T10:46:06.789Z,23.67
2023-04-25T10:48:34.614Z,30.60
2023-04-25T10:51:12.545Z,30.08
2023-04-25T10:53:40.354Z,43.58
2023-04-25T10:56:12.533Z,39.08
2023-04-25T10:58:45.798Z,31.58
2023-04-25T11:01:24.299Z,25.30
2023-04-25T11:03:59.469Z,69.60
2023-04-25T11:06:30.688Z,93.00
2023-04-25T11:08:58.467Z,105.80
2023-04-25T11:11:29.112Z,75.32
2023-04-25T11:13:56.904Z,68.55
2023-04-25T11:16:29.499Z,72.97
2023-04-25T11:18:59.563Z,87.78
2023-04-25T11:21:29.053Z,83.15
2023-04-25T11:23:58.544Z,76.18
2023-04-25T11:26:27.162Z,70.00
2023-04-25T11:28:59.669Z,80.70
2023-04-25T11:31:27.675Z,84.78
2023-04-25T11:33:56.454Z,84.65
2023-04-25T11:36:25.180Z,78.53
2023-04-25T11:38:53.182Z,84.95
2023-04-25T11:41:21.442Z,73.93
2023-04-25T11:43:49.905Z,72.70
2023-04-25T11:46:18.139Z,46.95
2023-04-25T11:48:46.575Z,80.15
2023-04-25T11:51:14.512Z,74.65
2023-04-25T11:53:46.832Z,70.55
2023-04-25T11:56:14.705Z,55.78
2023-04-25T11:59:03.942Z,72.30
2023-04-25T12:01:38.265Z,65.15
2023-04-25T12:04:16.052Z,66.53
2023-04-25T12:06:44.918Z,75.25
2023-04-25T12:09:17.324Z,70.97
2023-04-25T12:11:45.964Z,100.07
2023-04-25T12:14:14.266Z,53.97
2023-04-25T12:16:42.916Z,78.63
2023-04-25T12:19:13.168Z,83.80
2023-04-25T12:21:50.451Z,70.22
2023-04-25T12:24:26.941Z,32.00
2023-04-25T12:27:05.217Z,27.95
2023-04-25T12:29:42.498Z,24.90
2023-04-25T12:32:16.714Z,25.30
2023-04-25T12:34:44.582Z,22.73
2023-04-25T12:37:13.009Z,32.53
2023-04-25T12:39:40.876Z,24.77
2023-04-25T12:42:14.840Z,19.42
2023-04-25T12:44:42.709Z,19.38
2023-04-25T12:47:13.862Z,20.02
2023-04-25T12:49:41.798Z,19.83
2023-04-25T12:52:09.547Z,21.95
2023-04-25T12:54:37.461Z,27.05
2023-04-25T12:57:05.291Z,13.63
2023-04-25T12:59:33.066Z,19.42
2023-04-25T13:02:01.938Z,15.98
2023-04-25T13:04:30.400Z,26.10
2023-04-25T13:06:58.414Z,20.92
2023-04-25T13:09:26.424Z,15.18
2023-04-25T13:11:56.263Z,17.25
2023-04-25T13:14:26.304Z,14.05
2023-04-25T13:16:55.386Z,29.23
2023-04-25T13:19:23.518Z,25.58
2023-04-25T13:21:51.391Z,15.52
2023-04-25T13:24:19.335Z,28.02
2023-04-25T13:26:47.244Z,13.75
2023-04-25T13:29:15.063Z,13.45
2023-04-25T13:31:42.951Z,17.05
2023-04-25T13:34:11.401Z,14.18
2023-04-25T13:36:39.370Z,17.95
2023-04-25T13:39:07.249Z,15.15
2023-04-25T13:41:35.125Z,13.07
2023-04-25T13:44:05.981Z,21.58
2023-04-25T13:46:46.629Z,24.70
2023-04-25T13:49:15.474Z,15.23
2023-04-25T13:51:43.714Z,20.13
2023-04-25T13:54:14.192Z,15.25
2023-04-25T13:56:43.571Z,20.38
2023-04-25T13:59:11.556Z,20.17
2023-04-25T14:01:40.690Z,19.05
2023-04-25T14:04:08.753Z,15.32
2023-04-25T14:06:37.222Z,15.85
2023-04-25T14:09:05.587Z,34.28
2023-04-25T14:11:33.380Z,15.75
2023-04-25T14:14:01.241Z,37.25
2023-04-25T14:16:29.374Z,8.80
2023-04-25T14:18:57.312Z,14.90
2023-04-25T14:21:25.119Z,2.40
2023-04-25T14:23:53.626Z,7.00
2023-04-25T14:26:21.817Z,5.00
2023-04-25T14:28:49.520Z,9.13
2023-04-25T14:31:17.322Z,23.48
2023-04-25T14:33:45.180Z,7.57
2023-04-25T14:36:12.933Z,8.40
2023-04-25T14:38:40.653Z,10.50
2023-04-25T14:41:08.471Z,2.42
2023-04-25T14:43:37.701Z,8.10
2023-04-25T14:46:05.398Z,4.72
2023-04-25T14:48:33.101Z,18.13
2023-04-25T14:51:01.801Z,7.63
2023-04-25T14:53:29.908Z,84.00
2023-04-25T14:55:57.860Z,6.50
2023-04-25T14:58:25.495Z,18.10
2023-04-25T15:00:54.729Z,7.22
2023-04-25T15:03:22.473Z,29.75
2023-04-25T15:05:50.178Z,11.35
2023-04-25T15:08:17.957Z,7.70
2023-04-25T15:10:46.461Z,7.47
2023-04-25T15:13:14.090Z,15.10
2023-04-25T15:15:41.941Z,9.20
2023-04-25T15:18:11.300Z,13.82
2023-04-25T15:20:39.392Z,4.00
2023-04-25T15:23:07.228Z,8.05
2023-04-25T15:25:35.337Z,8.98
2023-04-25T15:28:04.073Z,8.55
2023-04-25T15:30:32.340Z,5.50
2023-04-25T15:33:00.198Z,7.18
2023-04-25T15:35:28.234Z,3.05
2023-04-25T15:37:56.213Z,6.63
2023-04-25T15:40:24.034Z,18.75
2023-04-25T15:42:52.242Z,12.48
2023-04-25T15:45:25.972Z,26.23
2023-04-25T15:47:55.275Z,9.90
2023-04-25T15:50:23.282Z,15.07
2023-04-25T15:52:51.555Z,11.05
2023-04-25T15:55:21.206Z,9.82
2023-04-25T15:57:51.244Z,7.60
2023-04-25T16:00:22.311Z,12.50
2023-04-25T16:02:50.367Z,7.53
2023-04-25T16:05:18.487Z,6.90
2023-04-25T16:07:46.975Z,8.95
2023-04-25T16:10:17.216Z,8.30
2023-04-25T16:12:44.991Z,40.85
2023-04-25T16:15:15.251Z,6.88
2023-04-25T16:17:43.027Z,7.05
2023-04-25T16:20:12.614Z,4.13
2023-04-25T16:22:41.176Z,7.22
2023-04-25T16:25:09.260Z,7.45
2023-04-25T16:27:39.844Z,8.07
2023-04-25T16:30:10.670Z,6.22
2023-04-25T16:32:40.010Z,6.13
2023-04-25T16:35:08.134Z,7.15
2023-04-25T16:37:35.864Z,5.40
2023-04-25T16:40:03.361Z,6.32
2023-04-25T16:42:32.547Z,8.48
2023-04-25T16:45:00.587Z,4.20
2023-04-25T16:47:28.379Z,6.00
2023-04-25T16:49:56.502Z,4.80
2023-04-25T16:52:24.281Z,16.48
2023-04-25T16:54:52.053Z,2.22
2023-04-25T16:57:19.742Z,3.58
2023-04-25T16:59:47.532Z,3.70
2023-04-25T17:02:17.172Z,4.82
2023-04-25T17:04:45.011Z,2.28
2023-04-25T17:07:12.946Z,6.40
2023-04-25T17:09:41.092Z,9.45
2023-04-25T17:12:08.747Z,12.75
2023-04-25T17:14:37.549Z,5.35
2023-04-25T17:17:05.535Z,4.93
2023-04-25T17:19:33.210Z,3.20
2023-04-25T17:22:01.033Z,2.50
2023-04-25T17:24:28.692Z,4.25
2023-04-25T17:26:57.266Z,7.78
2023-04-25T17:29:25.203Z,6.30
2023-04-25T17:31:53.762Z,5.47
2023-04-25T17:34:22.201Z,7.57
2023-04-25T17:36:50.267Z,7.15
2023-04-25T17:39:17.971Z,6.07
2023-04-25T17:41:46.267Z,9.05
2023-04-25T17:44:14.926Z,7.78
2023-04-25T17:46:42.686Z,8.95
2023-04-25T17:49:10.507Z,12.18
2023-04-25T17:51:38.234Z,17.15
2023-04-25T17:54:05.995Z,15.73
2023-04-25T17:56:37.400Z,13.20
2023-04-25T17:59:05.293Z,12.65
2023-04-25T18:01:34.321Z,18.08
2023-04-25T18:04:04.646Z,10.75
2023-04-25T18:06:35.453Z,13.40
2023-04-25T18:09:03.680Z,9.38
2023-04-25T18:11:31.978Z,15.10
2023-04-25T18:13:59.707Z,13.45
2023-04-25T18:16:29.463Z,11.35
2023-04-25T18:21:33.118Z,9.48
2023-04-25T18:24:01.327Z,9.65
2023-04-25T18:26:30.893Z,10.57
2023-04-25T18:28:59.292Z,9.13
2023-04-25T18:31:26.993Z,9.20
2023-04-25T18:33:54.934Z,10.07
2023-04-25T18:36:22.701Z,6.40
2023-04-25T18:38:56.201Z,9.80
2023-04-25T18:44:03.706Z,6.05
2023-04-25T18:46:33.410Z,11.98
2023-04-25T18:49:01.342Z,8.38
2023-04-25T18:51:31.519Z,10.90
2023-04-25T18:53:59.625Z,6.68
2023-04-25T18:56:27.761Z,10.20
2023-04-25T18:58:56.147Z,8.75
2023-04-25T19:01:24.690Z,6.43
2023-04-25T19:03:57.160Z,8.70
2023-04-25T19:06:27.452Z,4.65
2023-04-25T19:08:55.670Z,8.25
2023-04-25T19:11:23.556Z,8.55
2023-04-25T19:13:51.800Z,9.93
2023-04-25T19:16:19.860Z,8.80
2023-04-25T19:18:47.595Z,8.40
2023-04-25T19:21:15.512Z,7.72
2023-04-25T19:23:43.269Z,10.60
2023-04-25T19:26:10.952Z,7.63
2023-04-25T19:28:39.259Z,6.00
2023-04-25T19:31:07.340Z,7.95
2023-04-25T19:33:35.235Z,4.78
2023-04-25T19:36:03.301Z,6.03
2023-04-25T19:38:31.157Z,4.72
2023-04-25T19:40:58.917Z,6.50
2023-04-25T19:43:27.087Z,6.57
2023-04-25T19:45:55.177Z,11.10
2023-04-25T19:48:23.002Z,7.03
2023-04-25T19:50:51.206Z,7.28
2023-04-25T19:53:18.974Z,7.75
2023-04-25T19:55:46.941Z,8.57
2023-04-25T19:58:14.608Z,6.45
2023-04-25T20:00:42.882Z,8.77
2023-04-25T20:03:12.329Z,7.70
2023-04-25T20:05:40.166Z,5.85
2023-04-25T20:08:07.945Z,10.77
2023-04-25T20:10:35.581Z,10.75
2023-04-25T20:13:03.452Z,25.58
2023-04-25T20:15:31.939Z,24.45
2023-04-25T20:17:59.841Z,15.35
2023-04-25T20:20:27.620Z,7.95
2023-04-25T20:22:55.676Z,11.32
2023-04-25T20:25:24.024Z,5.57
2023-04-25T20:27:51.760Z,6.57
2023-04-25T20:30:19.783Z,5.47
2023-04-25T20:32:47.652Z,6.65
2023-04-25T20:35:15.545Z,8.50
2023-04-25T20:37:43.487Z,9.43
2023-04-25T20:40:11.265Z,5.70
2023-04-25T20:42:39.081Z,11.15
2023-04-25T20:45:13.509Z,5.82
2023-04-25T20:47:41.593Z,8.80
2023-04-25T20:50:09.596Z,17.42
2023-04-25T20:52:38.724Z,8.18
2023-04-25T20:55:07.385Z,10.93
2023-04-25T20:57:35.125Z,7.47
2023-04-25T21:00:05.459Z,7.28
2023-04-25T21:02:33.634Z,9.70
2023-04-25T21:05:02.005Z,12.25
2023-04-25T21:07:29.958Z,5.75
2023-04-25T21:09:58.097Z,4.63
2023-04-25T21:12:25.824Z,9.88
2023-04-25T21:14:53.502Z,7.65
2023-04-25T21:17:21.404Z,6.75
2023-04-25T21:19:49.519Z,8.75
2023-04-25T21:22:17.273Z,7.18
2023-04-25T21:24:45.350Z,12.15
2023-04-25T21:27:13.175Z,6.10
2023-04-25T21:29:40.832Z,6.22
2023-04-25T21:32:09.002Z,6.32
2023-04-25T21:34:36.781Z,7.05
2023-04-25T21:37:06.964Z,8.90
2023-04-25T21:39:34.885Z,10.50
2023-04-25T21:42:03.397Z,6.30
2023-04-25T21:44:31.252Z,11.77
2023-04-25T21:46:59.079Z,7.82
2023-04-25T21:49:29.676Z,6.80
2023-04-25T21:51:57.926Z,6.60
2023-04-25T21:54:25.785Z,7.70
2023-04-25T21:56:53.471Z,9.75
2023-04-25T21:59:21.292Z,6.13
2023-04-25T22:01:49.587Z,11.98
2023-04-25T22:04:18.355Z,5.75
2023-04-25T22:06:46.606Z,10.95
2023-04-25T22:09:15.458Z,7.18
2023-04-25T22:11:45.545Z,8.77
2023-04-25T22:14:13.531Z,8.85
2023-04-25T22:16:41.733Z,7.18
2023-04-25T22:19:09.657Z,6.50
2023-04-25T22:21:37.405Z,8.98
2023-04-25T22:24:06.373Z,9.90
2023-04-25T22:26:34.551Z,6.72
2023-04-25T22:29:02.738Z,14.40
2023-04-25T22:31:30.581Z,9.98
2023-04-25T22:33:58.505Z,15.38
2023-04-25T22:36:27.670Z,10.18
2023-04-25T22:38:55.442Z,10.82
2023-04-25T22:41:23.883Z,15.15
2023-04-25T22:43:54.079Z,6.93
2023-04-25T22:46:22.291Z,9.90
2023-04-25T22:48:50.275Z,9.85
2023-04-25T22:51:19.516Z,7.97
2023-04-25T22:53:47.261Z,13.10
2023-04-25T22:56:15.485Z,8.27
2023-04-25T22:58:44.106Z,9.07
2023-04-25T23:01:12.469Z,6.75
2023-04-25T23:03:40.890Z,7.65
2023-04-25T23:06:08.738Z,12.80
2023-04-25T23:08:36.626Z,5.30
2023-04-25T23:11:10.456Z,6.97
2023-04-25T23:13:38.297Z,5.13
2023-04-25T23:16:06.581Z,11.23
2023-04-25T23:18:34.158Z,8.10
2023-04-25T23:21:02.284Z,12.43
2023-04-25T23:23:30.036Z,14.80
2023-04-25T23:25:57.943Z,14.18
2023-04-25T23:28:25.908Z,16.35
2023-04-25T23:30:53.777Z,28.95
2023-04-25T23:33:21.598Z,13.35
2023-04-25T23:35:49.433Z,13.30
2023-04-25T23:38:17.370Z,18.40
2023-04-25T23:40:45.154Z,18.08
2023-04-25T23:43:12.944Z,8.25
2023-04-25T23:45:44.000Z,14.05
2023-04-25T23:48:11.800Z,13.90
2023-04-25T23:50:39.674Z,9.45
2023-04-25T23:53:07.592Z,10.30
2023-04-25T23:55:35.311Z,13.77
2023-04-25T23:58:03.759Z,12.75
